sensor_id;sensor_type;location;lat;lon;timestamp;P1;durP1;ratioP1;P2;durP2;ratioP2
7398;SDS011;3740;50.700;7.184;2022-10-10T00:01:22;5.17;;;4.33;;
7398;SDS011;3740;50.700;7.184;2022-10-10T00:03:49;4.63;;;3.80;;
7398;SDS011;3740;50.700;7.184;2022-10-10T00:06:15;6.13;;;4.00;;
7398;SDS011;3740;50.700;7.184;2022-10-10T00:08:41;4.70;;;4.10;;
7398;SDS011;3740;50.700;7.184;2022-10-10T00:11:08;5.80;;;4.07;;
7398;SDS011;3740;50.700;7.184;2022-10-10T00:13:35;5.40;;;4.17;;
7398;SDS011;3740;50.700;7.184;2022-10-10T00:16:01;4.53;;;4.00;;
7398;SDS011;3740;50.700;7.184;2022-10-10T00:18:27;4.97;;;3.97;;
7398;SDS011;3740;50.700;7.184;2022-10-10T00:20:53;5.57;;;4.07;;
7398;SDS011;3740;50.700;7.184;2022-10-10T00:23:19;4.10;;;3.80;;
7398;SDS011;3740;50.700;7.184;2022-10-10T00:25:45;4.70;;;4.13;;
7398;SDS011;3740;50.700;7.184;2022-10-10T00:28:11;5.97;;;4.37;;
7398;SDS011;3740;50.700;7.184;2022-10-10T00:30:37;5.93;;;4.20;;
7398;SDS011;3740;50.700;7.184;2022-10-10T00:33:03;4.63;;;4.13;;
7398;SDS011;3740;50.700;7.184;2022-10-10T00:35:29;4.10;;;3.70;;
7398;SDS011;3740;50.700;7.184;2022-10-10T00:37:55;4.33;;;3.93;;
7398;SDS011;3740;50.700;7.184;2022-10-10T00:40:21;5.57;;;4.07;;
7398;SDS011;3740;50.700;7.184;2022-10-10T00:42:47;5.83;;;4.27;;
7398;SDS011;3740;50.700;7.184;2022-10-10T00:47:55;5.33;;;4.37;;
7398;SDS011;3740;50.700;7.184;2022-10-10T00:50:28;4.00;;;3.70;;
7398;SDS011;3740;50.700;7.184;2022-10-10T00:52:55;3.93;;;3.63;;
7398;SDS011;3740;50.700;7.184;2022-10-10T00:55:22;6.00;;;4.00;;
7398;SDS011;3740;50.700;7.184;2022-10-10T00:57:48;4.40;;;4.00;;
7398;SDS011;3740;50.700;7.184;2022-10-10T01:00:14;4.20;;;3.80;;
7398;SDS011;3740;50.700;7.184;2022-10-10T01:02:40;4.10;;;3.80;;
7398;SDS011;3740;50.700;7.184;2022-10-10T01:05:05;4.20;;;3.63;;
7398;SDS011;3740;50.700;7.184;2022-10-10T01:07:31;4.17;;;3.77;;
7398;SDS011;3740;50.700;7.184;2022-10-10T01:09:59;4.83;;;4.20;;
7398;SDS011;3740;50.700;7.184;2022-10-10T01:12:52;4.50;;;4.10;;
7398;SDS011;3740;50.700;7.184;2022-10-10T01:27:23;4.50;;;3.80;;
7398;SDS011;3740;50.700;7.184;2022-10-10T01:29:50;4.30;;;3.90;;
7398;SDS011;3740;50.700;7.184;2022-10-10T01:35:16;4.53;;;4.13;;
7398;SDS011;3740;50.700;7.184;2022-10-10T01:40:46;4.87;;;4.33;;
7398;SDS011;3740;50.700;7.184;2022-10-10T01:43:23;4.60;;;4.20;;
7398;SDS011;3740;50.700;7.184;2022-10-10T01:45:51;5.17;;;4.33;;
7398;SDS011;3740;50.700;7.184;2022-10-10T01:48:18;5.40;;;4.40;;
7398;SDS011;3740;50.700;7.184;2022-10-10T01:50:56;4.50;;;3.97;;
7398;SDS011;3740;50.700;7.184;2022-10-10T01:53:40;6.50;;;3.80;;
7398;SDS011;3740;50.700;7.184;2022-10-10T01:56:08;5.27;;;4.50;;
7398;SDS011;3740;50.700;7.184;2022-10-10T01:59:03;4.10;;;3.80;;
7398;SDS011;3740;50.700;7.184;2022-10-10T02:04:31;4.80;;;3.70;;
7398;SDS011;3740;50.700;7.184;2022-10-10T02:07:32;5.83;;;4.03;;
7398;SDS011;3740;50.700;7.184;2022-10-10T02:10:27;5.00;;;4.20;;
7398;SDS011;3740;50.700;7.184;2022-10-10T02:12:56;4.67;;;4.20;;
7398;SDS011;3740;50.700;7.184;2022-10-10T02:15:25;4.83;;;4.30;;
7398;SDS011;3740;50.700;7.184;2022-10-10T02:17:56;5.03;;;4.20;;
7398;SDS011;3740;50.700;7.184;2022-10-10T02:20:24;5.00;;;4.20;;
7398;SDS011;3740;50.700;7.184;2022-10-10T02:22:51;4.97;;;4.50;;
7398;SDS011;3740;50.700;7.184;2022-10-10T02:25:21;5.67;;;4.40;;
7398;SDS011;3740;50.700;7.184;2022-10-10T02:27:57;4.40;;;4.00;;
7398;SDS011;3740;50.700;7.184;2022-10-10T02:30:24;4.77;;;4.23;;
7398;SDS011;3740;50.700;7.184;2022-10-10T02:32:54;4.70;;;4.20;;
7398;SDS011;3740;50.700;7.184;2022-10-10T02:35:26;4.70;;;4.10;;
7398;SDS011;3740;50.700;7.184;2022-10-10T02:37:56;4.60;;;3.80;;
7398;SDS011;3740;50.700;7.184;2022-10-10T02:40:25;5.43;;;4.00;;
7398;SDS011;3740;50.700;7.184;2022-10-10T02:42:53;4.60;;;4.17;;
7398;SDS011;3740;50.700;7.184;2022-10-10T02:45:21;6.27;;;4.27;;
7398;SDS011;3740;50.700;7.184;2022-10-10T02:47:47;5.13;;;3.93;;
7398;SDS011;3740;50.700;7.184;2022-10-10T02:50:14;5.33;;;3.80;;
7398;SDS011;3740;50.700;7.184;2022-10-10T02:52:40;4.60;;;3.87;;
7398;SDS011;3740;50.700;7.184;2022-10-10T02:55:06;4.27;;;3.87;;
7398;SDS011;3740;50.700;7.184;2022-10-10T02:57:31;4.90;;;4.10;;
7398;SDS011;3740;50.700;7.184;2022-10-10T02:59:57;3.90;;;3.60;;
7398;SDS011;3740;50.700;7.184;2022-10-10T03:02:23;3.90;;;3.60;;
7398;SDS011;3740;50.700;7.184;2022-10-10T03:04:48;4.33;;;3.70;;
7398;SDS011;3740;50.700;7.184;2022-10-10T03:07:14;4.67;;;3.97;;
7398;SDS011;3740;50.700;7.184;2022-10-10T03:09:39;4.93;;;4.43;;
7398;SDS011;3740;50.700;7.184;2022-10-10T03:12:06;5.40;;;4.70;;
7398;SDS011;3740;50.700;7.184;2022-10-10T03:14:32;5.00;;;4.10;;
7398;SDS011;3740;50.700;7.184;2022-10-10T03:16:57;5.20;;;3.90;;
7398;SDS011;3740;50.700;7.184;2022-10-10T03:19:23;4.43;;;4.03;;
7398;SDS011;3740;50.700;7.184;2022-10-10T03:21:48;4.53;;;4.10;;
7398;SDS011;3740;50.700;7.184;2022-10-10T03:24:14;5.53;;;4.80;;
7398;SDS011;3740;50.700;7.184;2022-10-10T03:26:40;4.90;;;4.33;;
7398;SDS011;3740;50.700;7.184;2022-10-10T03:29:05;5.30;;;4.33;;
7398;SDS011;3740;50.700;7.184;2022-10-10T03:31:31;4.70;;;4.23;;
7398;SDS011;3740;50.700;7.184;2022-10-10T03:33:57;5.10;;;4.60;;
7398;SDS011;3740;50.700;7.184;2022-10-10T03:36:23;6.67;;;4.67;;
7398;SDS011;3740;50.700;7.184;2022-10-10T03:38:48;4.53;;;4.13;;
7398;SDS011;3740;50.700;7.184;2022-10-10T03:41:14;5.37;;;4.67;;
7398;SDS011;3740;50.700;7.184;2022-10-10T03:43:39;5.67;;;4.47;;
7398;SDS011;3740;50.700;7.184;2022-10-10T03:46:05;5.00;;;4.37;;
7398;SDS011;3740;50.700;7.184;2022-10-10T03:48:31;5.67;;;4.50;;
7398;SDS011;3740;50.700;7.184;2022-10-10T03:50:56;4.80;;;4.40;;
7398;SDS011;3740;50.700;7.184;2022-10-10T03:53:22;5.50;;;4.20;;
7398;SDS011;3740;50.700;7.184;2022-10-10T03:55:47;4.40;;;4.00;;
7398;SDS011;3740;50.700;7.184;2022-10-10T03:58:14;4.40;;;4.00;;
7398;SDS011;3740;50.700;7.184;2022-10-10T04:00:39;5.17;;;4.37;;
7398;SDS011;3740;50.700;7.184;2022-10-10T04:03:05;5.93;;;4.50;;
7398;SDS011;3740;50.700;7.184;2022-10-10T04:05:35;4.70;;;4.30;;
7398;SDS011;3740;50.700;7.184;2022-10-10T04:08:01;5.27;;;4.77;;
7398;SDS011;3740;50.700;7.184;2022-10-10T04:10:28;5.13;;;4.60;;
7398;SDS011;3740;50.700;7.184;2022-10-10T04:12:58;6.20;;;4.73;;
7398;SDS011;3740;50.700;7.184;2022-10-10T04:15:24;4.67;;;4.27;;
7398;SDS011;3740;50.700;7.184;2022-10-10T04:17:50;5.47;;;4.93;;
7398;SDS011;3740;50.700;7.184;2022-10-10T04:20:16;6.93;;;4.83;;
7398;SDS011;3740;50.700;7.184;2022-10-10T04:22:42;5.63;;;5.13;;
7398;SDS011;3740;50.700;7.184;2022-10-10T04:25:08;4.87;;;4.30;;
7398;SDS011;3740;50.700;7.184;2022-10-10T04:27:36;6.27;;;5.60;;
7398;SDS011;3740;50.700;7.184;2022-10-10T04:30:02;6.00;;;5.33;;
7398;SDS011;3740;50.700;7.184;2022-10-10T04:32:29;7.40;;;5.50;;
7398;SDS011;3740;50.700;7.184;2022-10-10T04:34:55;6.47;;;5.67;;
7398;SDS011;3740;50.700;7.184;2022-10-10T04:37:21;6.20;;;5.40;;
7398;SDS011;3740;50.700;7.184;2022-10-10T04:39:46;7.33;;;5.37;;
7398;SDS011;3740;50.700;7.184;2022-10-10T04:42:12;7.90;;;5.03;;
7398;SDS011;3740;50.700;7.184;2022-10-10T04:44:37;6.10;;;5.17;;
7398;SDS011;3740;50.700;7.184;2022-10-10T04:47:03;7.30;;;4.97;;
7398;SDS011;3740;50.700;7.184;2022-10-10T04:49:29;6.33;;;5.13;;
7398;SDS011;3740;50.700;7.184;2022-10-10T04:51:54;6.67;;;4.70;;
7398;SDS011;3740;50.700;7.184;2022-10-10T04:54:20;5.33;;;4.70;;
7398;SDS011;3740;50.700;7.184;2022-10-10T04:56:46;5.07;;;4.40;;
7398;SDS011;3740;50.700;7.184;2022-10-10T04:59:11;8.87;;;4.73;;
7398;SDS011;3740;50.700;7.184;2022-10-10T05:01:37;5.67;;;5.03;;
7398;SDS011;3740;50.700;7.184;2022-10-10T05:04:03;8.03;;;5.00;;
7398;SDS011;3740;50.700;7.184;2022-10-10T05:06:28;5.13;;;4.60;;
7398;SDS011;3740;50.700;7.184;2022-10-10T05:08:54;5.20;;;4.70;;
7398;SDS011;3740;50.700;7.184;2022-10-10T05:11:20;7.03;;;5.07;;
7398;SDS011;3740;50.700;7.184;2022-10-10T05:13:47;7.37;;;5.20;;
7398;SDS011;3740;50.700;7.184;2022-10-10T05:16:16;6.17;;;4.90;;
7398;SDS011;3740;50.700;7.184;2022-10-10T05:18:42;6.43;;;5.00;;
7398;SDS011;3740;50.700;7.184;2022-10-10T05:21:07;5.40;;;4.90;;
7398;SDS011;3740;50.700;7.184;2022-10-10T05:23:35;9.20;;;5.57;;
7398;SDS011;3740;50.700;7.184;2022-10-10T05:26:02;5.60;;;5.03;;
7398;SDS011;3740;50.700;7.184;2022-10-10T05:28:28;6.07;;;4.93;;
7398;SDS011;3740;50.700;7.184;2022-10-10T05:30:54;4.93;;;4.53;;
7398;SDS011;3740;50.700;7.184;2022-10-10T05:33:20;5.33;;;4.80;;
7398;SDS011;3740;50.700;7.184;2022-10-10T05:35:45;7.30;;;5.33;;
7398;SDS011;3740;50.700;7.184;2022-10-10T05:38:11;5.60;;;4.90;;
7398;SDS011;3740;50.700;7.184;2022-10-10T05:40:40;6.30;;;5.20;;
7398;SDS011;3740;50.700;7.184;2022-10-10T05:43:06;6.50;;;5.03;;
7398;SDS011;3740;50.700;7.184;2022-10-10T05:45:32;6.13;;;5.53;;
7398;SDS011;3740;50.700;7.184;2022-10-10T05:47:58;7.97;;;5.80;;
7398;SDS011;3740;50.700;7.184;2022-10-10T05:50:25;8.10;;;6.10;;
7398;SDS011;3740;50.700;7.184;2022-10-10T05:52:58;6.37;;;4.90;;
7398;SDS011;3740;50.700;7.184;2022-10-10T05:55:24;6.47;;;5.13;;
7398;SDS011;3740;50.700;7.184;2022-10-10T05:57:49;7.33;;;4.77;;
7398;SDS011;3740;50.700;7.184;2022-10-10T06:00:15;5.27;;;4.80;;
7398;SDS011;3740;50.700;7.184;2022-10-10T06:02:41;6.27;;;5.00;;
7398;SDS011;3740;50.700;7.184;2022-10-10T06:05:07;6.17;;;5.47;;
7398;SDS011;3740;50.700;7.184;2022-10-10T06:07:32;5.63;;;5.13;;
7398;SDS011;3740;50.700;7.184;2022-10-10T06:09:58;7.47;;;5.23;;
7398;SDS011;3740;50.700;7.184;2022-10-10T06:12:24;6.63;;;4.87;;
7398;SDS011;3740;50.700;7.184;2022-10-10T06:14:49;7.60;;;5.67;;
7398;SDS011;3740;50.700;7.184;2022-10-10T06:17:15;6.67;;;5.33;;
7398;SDS011;3740;50.700;7.184;2022-10-10T06:19:41;8.57;;;5.80;;
7398;SDS011;3740;50.700;7.184;2022-10-10T06:22:07;6.03;;;5.10;;
7398;SDS011;3740;50.700;7.184;2022-10-10T06:24:33;5.90;;;5.20;;
7398;SDS011;3740;50.700;7.184;2022-10-10T06:26:58;6.97;;;5.17;;
7398;SDS011;3740;50.700;7.184;2022-10-10T06:29:24;5.80;;;4.73;;
7398;SDS011;3740;50.700;7.184;2022-10-10T06:31:50;5.63;;;4.90;;
7398;SDS011;3740;50.700;7.184;2022-10-10T06:34:16;6.67;;;5.43;;
7398;SDS011;3740;50.700;7.184;2022-10-10T06:36:48;8.00;;;5.53;;
7398;SDS011;3740;50.700;7.184;2022-10-10T06:39:14;7.43;;;5.30;;
7398;SDS011;3740;50.700;7.184;2022-10-10T06:41:40;7.90;;;6.10;;
7398;SDS011;3740;50.700;7.184;2022-10-10T06:44:05;8.23;;;6.03;;
7398;SDS011;3740;50.700;7.184;2022-10-10T06:46:31;8.10;;;6.40;;
7398;SDS011;3740;50.700;7.184;2022-10-10T06:49:01;7.17;;;5.77;;
7398;SDS011;3740;50.700;7.184;2022-10-10T06:51:29;6.80;;;5.50;;
7398;SDS011;3740;50.700;7.184;2022-10-10T06:53:56;6.70;;;6.00;;
7398;SDS011;3740;50.700;7.184;2022-10-10T06:56:23;7.03;;;6.03;;
7398;SDS011;3740;50.700;7.184;2022-10-10T06:58:49;8.97;;;7.27;;
7398;SDS011;3740;50.700;7.184;2022-10-10T07:01:19;7.90;;;6.47;;
7398;SDS011;3740;50.700;7.184;2022-10-10T07:03:46;6.23;;;5.63;;
7398;SDS011;3740;50.700;7.184;2022-10-10T07:06:12;6.13;;;5.57;;
7398;SDS011;3740;50.700;7.184;2022-10-10T07:08:39;6.40;;;5.27;;
7398;SDS011;3740;50.700;7.184;2022-10-10T07:11:05;7.17;;;5.60;;
7398;SDS011;3740;50.700;7.184;2022-10-10T07:13:33;6.40;;;5.70;;
7398;SDS011;3740;50.700;7.184;2022-10-10T07:15:59;6.63;;;5.57;;
7398;SDS011;3740;50.700;7.184;2022-10-10T07:18:26;6.40;;;5.77;;
7398;SDS011;3740;50.700;7.184;2022-10-10T07:20:57;6.20;;;5.23;;
7398;SDS011;3740;50.700;7.184;2022-10-10T07:23:25;6.07;;;5.47;;
7398;SDS011;3740;50.700;7.184;2022-10-10T07:25:57;6.60;;;5.60;;
7398;SDS011;3740;50.700;7.184;2022-10-10T07:28:24;7.43;;;6.03;;
7398;SDS011;3740;50.700;7.184;2022-10-10T07:30:50;7.27;;;5.50;;
7398;SDS011;3740;50.700;7.184;2022-10-10T07:33:15;6.33;;;5.50;;
7398;SDS011;3740;50.700;7.184;2022-10-10T07:35:41;6.20;;;5.30;;
7398;SDS011;3740;50.700;7.184;2022-10-10T07:38:08;6.93;;;5.07;;
7398;SDS011;3740;50.700;7.184;2022-10-10T07:40:35;7.37;;;5.10;;
7398;SDS011;3740;50.700;7.184;2022-10-10T07:43:03;5.80;;;4.90;;
7398;SDS011;3740;50.700;7.184;2022-10-10T07:45:30;9.10;;;5.57;;
7398;SDS011;3740;50.700;7.184;2022-10-10T07:48:00;5.10;;;4.60;;
7398;SDS011;3740;50.700;7.184;2022-10-10T07:50:26;8.90;;;5.47;;
7398;SDS011;3740;50.700;7.184;2022-10-10T07:52:51;6.70;;;5.10;;
7398;SDS011;3740;50.700;7.184;2022-10-10T07:55:17;6.50;;;5.03;;
7398;SDS011;3740;50.700;7.184;2022-10-10T07:57:42;5.83;;;5.17;;
7398;SDS011;3740;50.700;7.184;2022-10-10T08:00:08;6.17;;;5.57;;
7398;SDS011;3740;50.700;7.184;2022-10-10T08:02:36;5.63;;;4.60;;
7398;SDS011;3740;50.700;7.184;2022-10-10T08:05:01;6.30;;;4.67;;
7398;SDS011;3740;50.700;7.184;2022-10-10T08:07:27;7.67;;;5.00;;
7398;SDS011;3740;50.700;7.184;2022-10-10T08:09:52;5.07;;;4.57;;
7398;SDS011;3740;50.700;7.184;2022-10-10T08:12:18;5.40;;;4.33;;
7398;SDS011;3740;50.700;7.184;2022-10-10T08:14:44;8.37;;;4.87;;
7398;SDS011;3740;50.700;7.184;2022-10-10T08:17:09;5.73;;;4.77;;
7398;SDS011;3740;50.700;7.184;2022-10-10T08:19:37;7.40;;;4.53;;
7398;SDS011;3740;50.700;7.184;2022-10-10T08:22:03;7.37;;;4.63;;
7398;SDS011;3740;50.700;7.184;2022-10-10T08:24:28;5.13;;;4.63;;
7398;SDS011;3740;50.700;7.184;2022-10-10T08:26:54;6.33;;;4.80;;
7398;SDS011;3740;50.700;7.184;2022-10-10T08:29:20;6.03;;;4.40;;
7398;SDS011;3740;50.700;7.184;2022-10-10T08:31:46;7.40;;;5.17;;
7398;SDS011;3740;50.700;7.184;2022-10-10T08:34:11;5.47;;;4.40;;
7398;SDS011;3740;50.700;7.184;2022-10-10T08:36:37;5.53;;;4.13;;
7398;SDS011;3740;50.700;7.184;2022-10-10T08:39:03;7.03;;;4.30;;
7398;SDS011;3740;50.700;7.184;2022-10-10T08:46:53;10.30;;;8.13;;
7398;SDS011;3740;50.700;7.184;2022-10-10T08:49:32;6.53;;;5.30;;
7398;SDS011;3740;50.700;7.184;2022-10-10T08:52:27;9.33;;;5.57;;
7398;SDS011;3740;50.700;7.184;2022-10-10T08:54:57;8.27;;;6.67;;
7398;SDS011;3740;50.700;7.184;2022-10-10T08:57:28;7.43;;;5.43;;
7398;SDS011;3740;50.700;7.184;2022-10-10T09:00:05;6.13;;;4.70;;
7398;SDS011;3740;50.700;7.184;2022-10-10T09:05:40;6.27;;;5.03;;
7398;SDS011;3740;50.700;7.184;2022-10-10T09:11:25;9.47;;;4.90;;
7398;SDS011;3740;50.700;7.184;2022-10-10T09:14:18;7.00;;;5.33;;
7398;SDS011;3740;50.700;7.184;2022-10-10T09:17:02;4.83;;;4.43;;
7398;SDS011;3740;50.700;7.184;2022-10-10T09:22:28;5.10;;;4.00;;
7398;SDS011;3740;50.700;7.184;2022-10-10T09:25:05;5.17;;;4.67;;
7398;SDS011;3740;50.700;7.184;2022-10-10T09:27:55;5.83;;;5.17;;
7398;SDS011;3740;50.700;7.184;2022-10-10T09:30:28;8.00;;;5.13;;
7398;SDS011;3740;50.700;7.184;2022-10-10T09:32:59;6.43;;;5.23;;
7398;SDS011;3740;50.700;7.184;2022-10-10T09:35:37;7.07;;;4.90;;
7398;SDS011;3740;50.700;7.184;2022-10-10T09:40:59;5.50;;;4.53;;
7398;SDS011;3740;50.700;7.184;2022-10-10T09:43:38;5.10;;;4.53;;
7398;SDS011;3740;50.700;7.184;2022-10-10T09:46:05;7.23;;;4.43;;
7398;SDS011;3740;50.700;7.184;2022-10-10T09:48:31;5.27;;;4.10;;
7398;SDS011;3740;50.700;7.184;2022-10-10T09:51:01;7.63;;;4.60;;
7398;SDS011;3740;50.700;7.184;2022-10-10T09:53:28;6.50;;;4.20;;
7398;SDS011;3740;50.700;7.184;2022-10-10T09:55:54;5.37;;;4.30;;
7398;SDS011;3740;50.700;7.184;2022-10-10T09:58:33;5.23;;;4.70;;
7398;SDS011;3740;50.700;7.184;2022-10-10T10:01:15;6.33;;;4.43;;
7398;SDS011;3740;50.700;7.184;2022-10-10T10:03:41;8.47;;;4.40;;
7398;SDS011;3740;50.700;7.184;2022-10-10T10:06:09;5.63;;;4.57;;
7398;SDS011;3740;50.700;7.184;2022-10-10T10:08:37;5.82;;;4.05;;
7398;SDS011;3740;50.700;7.184;2022-10-10T10:11:03;7.28;;;3.92;;
7398;SDS011;3740;50.700;7.184;2022-10-10T10:13:34;4.90;;;3.40;;
7398;SDS011;3740;50.700;7.184;2022-10-10T10:21:16;5.47;;;3.72;;
7398;SDS011;3740;50.700;7.184;2022-10-10T10:23:59;6.07;;;4.10;;
7398;SDS011;3740;50.700;7.184;2022-10-10T10:26:29;6.63;;;3.92;;
7398;SDS011;3740;50.700;7.184;2022-10-10T10:29:07;5.03;;;3.70;;
7398;SDS011;3740;50.700;7.184;2022-10-10T10:37:37;4.80;;;2.80;;
7398;SDS011;3740;50.700;7.184;2022-10-10T10:40:39;4.00;;;3.10;;
7398;SDS011;3740;50.700;7.184;2022-10-10T10:43:44;5.70;;;3.97;;
7398;SDS011;3740;50.700;7.184;2022-10-10T10:48:38;3.67;;;2.90;;
7398;SDS011;3740;50.700;7.184;2022-10-10T10:51:13;3.78;;;2.90;;
7398;SDS011;3740;50.700;7.184;2022-10-10T10:56:38;2.88;;;2.58;;
7398;SDS011;3740;50.700;7.184;2022-10-10T11:07:18;3.13;;;2.33;;
7398;SDS011;3740;50.700;7.184;2022-10-10T11:09:50;8.25;;;3.30;;
7398;SDS011;3740;50.700;7.184;2022-10-10T11:12:28;3.17;;;2.63;;
7398;SDS011;3740;50.700;7.184;2022-10-10T11:15:00;4.13;;;2.60;;
7398;SDS011;3740;50.700;7.184;2022-10-10T11:17:40;3.83;;;2.97;;
7398;SDS011;3740;50.700;7.184;2022-10-10T11:23:01;3.15;;;2.83;;
7398;SDS011;3740;50.700;7.184;2022-10-10T11:31:02;3.10;;;2.33;;
7398;SDS011;3740;50.700;7.184;2022-10-10T11:33:34;2.85;;;2.50;;
7398;SDS011;3740;50.700;7.184;2022-10-10T11:36:05;2.95;;;2.45;;
7398;SDS011;3740;50.700;7.184;2022-10-10T11:38:47;4.78;;;2.90;;
7398;SDS011;3740;50.700;7.184;2022-10-10T11:41:22;5.03;;;2.85;;
7398;SDS011;3740;50.700;7.184;2022-10-10T11:43:56;3.55;;;2.38;;
7398;SDS011;3740;50.700;7.184;2022-10-10T11:46:31;5.43;;;3.00;;
7398;SDS011;3740;50.700;7.184;2022-10-10T11:49:03;4.65;;;2.63;;
7398;SDS011;3740;50.700;7.184;2022-10-10T11:54:20;5.15;;;3.10;;
7398;SDS011;3740;50.700;7.184;2022-10-10T11:57:29;3.08;;;2.45;;
7398;SDS011;3740;50.700;7.184;2022-10-10T12:00:14;3.80;;;2.50;;
7398;SDS011;3740;50.700;7.184;2022-10-10T12:02:42;6.18;;;3.65;;
7398;SDS011;3740;50.700;7.184;2022-10-10T12:10:39;3.70;;;2.65;;
7398;SDS011;3740;50.700;7.184;2022-10-10T12:13:30;5.53;;;2.92;;
7398;SDS011;3740;50.700;7.184;2022-10-10T12:16:09;4.10;;;2.80;;
7398;SDS011;3740;50.700;7.184;2022-10-10T12:18:50;4.72;;;3.08;;
7398;SDS011;3740;50.700;7.184;2022-10-10T12:21:18;5.03;;;2.90;;
7398;SDS011;3740;50.700;7.184;2022-10-10T12:23:46;3.42;;;3.00;;
7398;SDS011;3740;50.700;7.184;2022-10-10T12:26:15;3.33;;;2.55;;
7398;SDS011;3740;50.700;7.184;2022-10-10T12:37:10;5.45;;;3.08;;
7398;SDS011;3740;50.700;7.184;2022-10-10T12:42:38;3.35;;;3.05;;
7398;SDS011;3740;50.700;7.184;2022-10-10T12:48:02;4.90;;;3.03;;
7398;SDS011;3740;50.700;7.184;2022-10-10T12:50:30;4.78;;;3.00;;
7398;SDS011;3740;50.700;7.184;2022-10-10T12:53:00;4.85;;;3.13;;
7398;SDS011;3740;50.700;7.184;2022-10-10T12:55:37;4.60;;;3.20;;
7398;SDS011;3740;50.700;7.184;2022-10-10T12:58:15;4.03;;;3.03;;
7398;SDS011;3740;50.700;7.184;2022-10-10T13:00:52;4.20;;;3.30;;
7398;SDS011;3740;50.700;7.184;2022-10-10T13:03:26;5.22;;;3.03;;
7398;SDS011;3740;50.700;7.184;2022-10-10T13:06:04;4.13;;;2.67;;
7398;SDS011;3740;50.700;7.184;2022-10-10T13:08:51;5.47;;;2.90;;
7398;SDS011;3740;50.700;7.184;2022-10-10T13:11:19;4.63;;;2.80;;
7398;SDS011;3740;50.700;7.184;2022-10-10T13:13:50;4.78;;;2.92;;
7398;SDS011;3740;50.700;7.184;2022-10-10T13:16:19;8.70;;;4.30;;
7398;SDS011;3740;50.700;7.184;2022-10-10T13:18:58;5.38;;;3.33;;
7398;SDS011;3740;50.700;7.184;2022-10-10T13:21:25;3.65;;;2.70;;
7398;SDS011;3740;50.700;7.184;2022-10-10T13:23:59;4.75;;;3.13;;
7398;SDS011;3740;50.700;7.184;2022-10-10T13:26:28;4.90;;;3.00;;
7398;SDS011;3740;50.700;7.184;2022-10-10T13:28:57;5.88;;;3.00;;
7398;SDS011;3740;50.700;7.184;2022-10-10T13:31:45;3.88;;;2.83;;
7398;SDS011;3740;50.700;7.184;2022-10-10T13:34:13;6.28;;;2.95;;
7398;SDS011;3740;50.700;7.184;2022-10-10T13:36:42;6.38;;;2.95;;
7398;SDS011;3740;50.700;7.184;2022-10-10T13:39:13;4.32;;;3.15;;
7398;SDS011;3740;50.700;7.184;2022-10-10T13:41:46;5.28;;;3.28;;
7398;SDS011;3740;50.700;7.184;2022-10-10T13:44:13;5.80;;;3.40;;
7398;SDS011;3740;50.700;7.184;2022-10-10T13:46:45;6.15;;;3.80;;
7398;SDS011;3740;50.700;7.184;2022-10-10T13:49:19;5.88;;;3.50;;
7398;SDS011;3740;50.700;7.184;2022-10-10T13:52:14;6.05;;;3.67;;
7398;SDS011;3740;50.700;7.184;2022-10-10T13:54:46;3.95;;;3.00;;
7398;SDS011;3740;50.700;7.184;2022-10-10T13:57:16;4.45;;;3.00;;
7398;SDS011;3740;50.700;7.184;2022-10-10T13:59:46;4.45;;;3.13;;
7398;SDS011;3740;50.700;7.184;2022-10-10T14:02:26;6.70;;;3.15;;
7398;SDS011;3740;50.700;7.184;2022-10-10T14:04:55;6.30;;;3.35;;
7398;SDS011;3740;50.700;7.184;2022-10-10T14:07:22;5.18;;;3.00;;
7398;SDS011;3740;50.700;7.184;2022-10-10T14:09:58;5.18;;;3.35;;
7398;SDS011;3740;50.700;7.184;2022-10-10T14:12:30;7.70;;;3.60;;
7398;SDS011;3740;50.700;7.184;2022-10-10T14:14:59;5.88;;;3.28;;
7398;SDS011;3740;50.700;7.184;2022-10-10T14:17:26;5.63;;;3.20;;
7398;SDS011;3740;50.700;7.184;2022-10-10T14:19:52;8.27;;;3.70;;
7398;SDS011;3740;50.700;7.184;2022-10-10T14:22:18;6.43;;;3.60;;
7398;SDS011;3740;50.700;7.184;2022-10-10T14:24:45;5.43;;;3.30;;
7398;SDS011;3740;50.700;7.184;2022-10-10T14:29:39;6.43;;;3.40;;
7398;SDS011;3740;50.700;7.184;2022-10-10T14:32:04;6.57;;;3.25;;
7398;SDS011;3740;50.700;7.184;2022-10-10T14:34:30;7.28;;;3.40;;
7398;SDS011;3740;50.700;7.184;2022-10-10T14:36:55;4.57;;;3.15;;
7398;SDS011;3740;50.700;7.184;2022-10-10T14:39:21;6.32;;;3.50;;
7398;SDS011;3740;50.700;7.184;2022-10-10T14:41:47;5.53;;;3.15;;
7398;SDS011;3740;50.700;7.184;2022-10-10T14:44:12;7.82;;;3.45;;
7398;SDS011;3740;50.700;7.184;2022-10-10T14:46:38;5.05;;;3.30;;
7398;SDS011;3740;50.700;7.184;2022-10-10T14:49:05;7.70;;;3.63;;
7398;SDS011;3740;50.700;7.184;2022-10-10T14:51:31;5.07;;;3.25;;
7398;SDS011;3740;50.700;7.184;2022-10-10T14:54:03;5.72;;;2.92;;
7398;SDS011;3740;50.700;7.184;2022-10-10T14:56:29;6.10;;;3.65;;
7398;SDS011;3740;50.700;7.184;2022-10-10T14:58:55;8.65;;;3.10;;
7398;SDS011;3740;50.700;7.184;2022-10-10T15:01:20;6.35;;;3.40;;
7398;SDS011;3740;50.700;7.184;2022-10-10T15:03:46;5.20;;;3.10;;
7398;SDS011;3740;50.700;7.184;2022-10-10T15:06:12;5.90;;;3.15;;
7398;SDS011;3740;50.700;7.184;2022-10-10T15:08:37;6.03;;;3.20;;
7398;SDS011;3740;50.700;7.184;2022-10-10T15:11:03;5.95;;;3.45;;
7398;SDS011;3740;50.700;7.184;2022-10-10T15:13:29;11.98;;;3.92;;
7398;SDS011;3740;50.700;7.184;2022-10-10T15:15:54;6.60;;;3.67;;
7398;SDS011;3740;50.700;7.184;2022-10-10T15:18:20;6.32;;;3.63;;
7398;SDS011;3740;50.700;7.184;2022-10-10T15:20:45;8.88;;;3.85;;
7398;SDS011;3740;50.700;7.184;2022-10-10T15:23:11;7.05;;;3.65;;
7398;SDS011;3740;50.700;7.184;2022-10-10T15:25:40;6.38;;;3.97;;
7398;SDS011;3740;50.700;7.184;2022-10-10T15:28:07;6.82;;;3.80;;
7398;SDS011;3740;50.700;7.184;2022-10-10T15:30:33;9.00;;;4.13;;
7398;SDS011;3740;50.700;7.184;2022-10-10T15:33:01;8.82;;;3.95;;
7398;SDS011;3740;50.700;7.184;2022-10-10T15:35:27;7.72;;;3.85;;
7398;SDS011;3740;50.700;7.184;2022-10-10T15:37:52;8.32;;;3.80;;
7398;SDS011;3740;50.700;7.184;2022-10-10T15:40:20;7.13;;;4.05;;
7398;SDS011;3740;50.700;7.184;2022-10-10T15:42:48;6.22;;;3.60;;
7398;SDS011;3740;50.700;7.184;2022-10-10T15:45:15;8.68;;;4.30;;
7398;SDS011;3740;50.700;7.184;2022-10-10T15:47:41;7.45;;;3.83;;
7398;SDS011;3740;50.700;7.184;2022-10-10T15:50:07;10.13;;;4.45;;
7398;SDS011;3740;50.700;7.184;2022-10-10T15:52:34;7.70;;;4.90;;
7398;SDS011;3740;50.700;7.184;2022-10-10T15:55:00;8.88;;;4.55;;
7398;SDS011;3740;50.700;7.184;2022-10-10T15:57:27;7.20;;;4.30;;
7398;SDS011;3740;50.700;7.184;2022-10-10T15:59:53;7.47;;;4.72;;
7398;SDS011;3740;50.700;7.184;2022-10-10T16:02:18;7.57;;;4.40;;
7398;SDS011;3740;50.700;7.184;2022-10-10T16:04:44;7.40;;;4.28;;
7398;SDS011;3740;50.700;7.184;2022-10-10T16:07:10;6.25;;;4.55;;
7398;SDS011;3740;50.700;7.184;2022-10-10T16:09:35;8.25;;;4.85;;
7398;SDS011;3740;50.700;7.184;2022-10-10T16:12:02;7.75;;;4.60;;
7398;SDS011;3740;50.700;7.184;2022-10-10T16:14:28;10.05;;;4.30;;
7398;SDS011;3740;50.700;7.184;2022-10-10T16:16:53;8.63;;;4.30;;
7398;SDS011;3740;50.700;7.184;2022-10-10T16:19:19;9.90;;;5.30;;
7398;SDS011;3740;50.700;7.184;2022-10-10T16:21:44;11.48;;;4.53;;
7398;SDS011;3740;50.700;7.184;2022-10-10T16:24:10;7.13;;;4.47;;
7398;SDS011;3740;50.700;7.184;2022-10-10T16:26:36;6.85;;;4.38;;
7398;SDS011;3740;50.700;7.184;2022-10-10T16:29:03;9.65;;;4.82;;
7398;SDS011;3740;50.700;7.184;2022-10-10T16:31:30;9.95;;;4.20;;
7398;SDS011;3740;50.700;7.184;2022-10-10T16:33:57;10.48;;;4.25;;
7398;SDS011;3740;50.700;7.184;2022-10-10T16:36:24;8.60;;;4.10;;
7398;SDS011;3740;50.700;7.184;2022-10-10T16:38:54;10.95;;;4.22;;
7398;SDS011;3740;50.700;7.184;2022-10-10T16:41:22;8.95;;;3.90;;
7398;SDS011;3740;50.700;7.184;2022-10-10T16:43:58;8.73;;;4.60;;
7398;SDS011;3740;50.700;7.184;2022-10-10T16:46:25;8.00;;;3.67;;
7398;SDS011;3740;50.700;7.184;2022-10-10T16:48:51;10.23;;;4.22;;
7398;SDS011;3740;50.700;7.184;2022-10-10T16:51:17;8.68;;;4.22;;
7398;SDS011;3740;50.700;7.184;2022-10-10T16:53:45;10.00;;;4.53;;
7398;SDS011;3740;50.700;7.184;2022-10-10T16:56:12;7.93;;;3.97;;
7398;SDS011;3740;50.700;7.184;2022-10-10T16:58:39;6.95;;;4.03;;
7398;SDS011;3740;50.700;7.184;2022-10-10T17:01:12;6.80;;;3.55;;
7398;SDS011;3740;50.700;7.184;2022-10-10T17:03:40;7.45;;;3.75;;
7398;SDS011;3740;50.700;7.184;2022-10-10T17:06:07;7.15;;;4.20;;